Flight Track Log - Related Links

Times and Time Zones

All times are in EDT time to prevent confusion due to time zone crossing. See the WIG1064 flight status page for this flight to view local times or setup timezone preferences in your user account.

Time Position Orientation Groundspeed Altitude Reporting Facility
EDT Latitude Longitude Course Direction KTS MPH feet Rate Location/Type
Wed 07:30:29 AM 42.9333 -71.4500 236° Southwest 119 137 1,100  Level KA90
Wed 07:31:30 AM 42.9167 -71.4833 236° Southwest 110 127 2,700 1,619 Climbing KA90
Wed 07:32:35 AM 42.9500 -71.5000 340° North 104 120 4,500 1,350 Climbing KA90
Wed 07:33:30 AM 42.9667 -71.5333 304° West 149 171 5,400 991 Climbing KA90
Wed 07:34:30 AM 43.0000 -71.5667 324° Northwest 155 178 6,400 810 Climbing KA90
Wed 07:35:36 AM 43.0500 -71.6167 324° Northwest 168 193 7,100 791 Climbing KA90
Wed 07:36:39 AM 43.0750 -71.6556 311° West 169 194 8,100 488 Climbing Boston Center
Wed 07:37:39 AM 43.1192 -71.7033 322° Northwest 190 219 8,100  Level Boston Center
Wed 07:38:39 AM 43.1528 -71.7400 321° Northwest 190 219 8,100 -45 Level Boston Center
Wed 07:39:51 AM 43.2031 -71.7992 319° Northwest 195 224 8,000  Descending Boston Center
Wed 07:40:51 AM 43.2514 -71.8642 316° Northwest 202 232 8,100  Climbing Boston Center
Wed 07:41:51 AM 43.2911 -71.9153 317° Northwest 197 227 8,000 -50 Descending Boston Center
Wed 07:42:51 AM 43.3331 -71.9692 317° Northwest 197 227 8,000 50 Level Boston Center
Wed 07:43:51 AM 43.3644 -72.0089 317° Northwest 197 227 8,100 100 Climbing Boston Center
Wed 07:44:51 AM 43.4106 -72.0658 318° Northwest 197 227 8,200 50 Climbing Boston Center
Wed 07:45:51 AM 43.4525 -72.1142 320° Northwest 202 232 8,200  Level Boston Center
Wed 07:46:51 AM 43.4942 -72.1625 320° Northwest 202 232 8,200  Level Boston Center
Wed 07:47:51 AM 43.5339 -72.2139 317° Northwest 197 227 8,200  Level Boston Center
Wed 07:48:51 AM 43.5756 -72.2625 320° Northwest 197 227 8,200  Level Boston Center
Wed 07:49:51 AM 43.6175 -72.3053 324° Northwest 192 221 8,200  Level Boston Center
Wed 07:50:51 AM 43.6569 -72.3483 322° Northwest 186 214 8,200  Level Boston Center
Wed 07:52:03 AM 43.6967 -72.3969 319° Northwest 186 214 8,200  Level Boston Center
Wed 07:53:03 AM 43.7444 -72.4486 322° Northwest 186 214 8,200  Level Boston Center
Wed 07:54:03 AM 43.7819 -72.4919 320° Northwest 186 214 8,200 -50 Level Boston Center
Wed 07:55:03 AM 43.8217 -72.5350 322° Northwest 186 214 8,100 -50 Descending Boston Center
Wed 07:56:03 AM 43.8633 -72.5725 327° Northwest 186 214 8,100 -45 Level Boston Center
Wed 07:57:15 AM 43.9008 -72.6244 315° West 186 214 8,000 -45 Descending Boston Center
Wed 07:58:15 AM 43.9506 -72.6736 325° Northwest 186 214 8,000  Level Boston Center
Wed 07:59:15 AM 43.9986 -72.7028 336° Northwest 186 214 8,000 -50 Level Boston Center
Wed 08:00:15 AM 44.0358 -72.7492 318° Northwest 180 207 7,900  Descending Boston Center
Wed 08:01:15 AM 44.0689 -72.8186 304° West 185 213 8,000 50 Climbing Boston Center
Wed 08:02:15 AM 44.1083 -72.8681 318° Northwest 185 213 8,000 -550 Level Boston Center
Wed 08:03:15 AM 44.1372 -72.9347 301° West 202 232 6,900 -1,050 Descending Boston Center
Wed 08:04:15 AM 44.1661 -73.0103 298° West 214 246 5,900 -700 Descending Boston Center
Wed 08:05:15 AM 44.1969 -73.0800 302° West 214 246 5,500 -800 Descending Boston Center
Wed 08:06:15 AM 44.2236 -73.1469 299° West 208 239 4,300 -900 Descending Boston Center
Wed 08:07:15 AM 44.2547 -73.2053 307° West 196 226 3,700 -700 Descending Boston Center
Wed 08:08:15 AM 44.2961 -73.2292 338° Northwest 171 197 2,900 -900 Descending Boston Center
Wed 08:09:15 AM 44.3358 -73.2092 20° North 153 176 1,900 -600 Descending Boston Center
Wed 08:10:15 AM 44.3672 -73.1950 18° North 132 152 1,700 -91 Descending Boston Center
Wed 08:11:27 AM 44.4028 -73.1811 16° North 126 145 1,700  Level Boston Center
Wed 08:13:00 AM 44.4667 -73.1500 357° North  Level FlightAware Approximate

Login

Don't have an account? Register now (free) for customized features, flight alerts, and more!